Time;durP1;ratioP1;P1;durP2;ratioP2;P2;SDS_P1;SDS_P2;PMS_P1;PMS_P2;Temp;Humidity;BMP_temperature;BMP_pressure;BME280_temperature;BME280_humidity;BME280_pressure;Samples;Min_cycle;Max_cycle;Signal;HPM_P1;HPM_P2
2023/05/14 00:01:34;;;;;;;6.35;5.20;;;16.70;94.30;;;;;;5082684;28;20008;-37
2023/05/14 00:04:01;;;;;;;6.00;5.03;;;16.60;94.40;;;;;;5084270;28;20476;-37
2023/05/14 00:06:26;;;;;;;5.75;5.25;;;16.60;94.50;;;;;;5083911;28;20020;-35
2023/05/14 00:08:52;;;;;;;6.65;5.93;;;16.50;94.60;;;;;;5083768;28;20517;-36
2023/05/14 00:11:17;;;;;;;7.25;5.53;;;16.50;94.80;;;;;;5084347;28;20028;-35
2023/05/14 00:13:43;;;;;;;6.45;5.57;;;16.40;94.90;;;;;;5084254;28;20021;-33
2023/05/14 00:16:08;;;;;;;6.30;5.70;;;16.40;95.10;;;;;;5084322;28;20055;-35
2023/05/14 00:18:34;;;;;;;7.18;5.88;;;16.30;95.30;;;;;;5083713;28;20494;-35
2023/05/14 00:21:03;;;;;;;7.53;5.70;;;16.30;95.50;;;;;;5084237;28;20107;-34
2023/05/14 00:23:28;;;;;;;6.47;5.68;;;16.20;95.70;;;;;;5083074;28;20024;-34
2023/05/14 00:25:57;;;;;;;7.28;5.90;;;16.20;95.90;;;;;;5084382;28;20616;-36
2023/05/14 00:28:25;;;;;;;7.90;5.50;;;16.10;96.00;;;;;;5083559;28;20581;-34
2023/05/14 00:30:50;;;;;;;7.15;5.88;;;16.10;96.20;;;;;;5084065;28;20491;-35
2023/05/14 00:33:16;;;;;;;5.93;5.03;;;16.00;96.40;;;;;;5084980;28;20036;-35
2023/05/14 00:35:41;;;;;;;5.50;5.00;;;16.00;96.60;;;;;;5084388;28;20020;-35
2023/05/14 00:38:07;;;;;;;5.57;4.97;;;16.00;96.70;;;;;;5084144;28;20035;-34
2023/05/14 00:40:33;;;;;;;6.07;5.47;;;15.90;96.80;;;;;;5084177;28;20084;-35
2023/05/14 00:42:58;;;;;;;6.43;5.82;;;15.80;97.00;;;;;;5084155;28;20568;-34
2023/05/14 00:45:24;;;;;;;6.95;6.10;;;15.80;97.30;;;;;;5083349;28;20114;-34
2023/05/14 00:47:50;;;;;;;7.65;5.85;;;15.80;97.60;;;;;;5084348;28;20358;-35
2023/05/14 00:50:17;;;;;;;7.60;6.28;;;15.80;97.80;;;;;;5083345;28;20027;-34
2023/05/14 00:52:43;;;;;;;7.07;6.38;;;15.80;97.90;;;;;;5083717;28;20020;-35
2023/05/14 00:55:11;;;;;;;6.32;5.72;;;15.80;98.00;;;;;;5084796;28;20402;-35
2023/05/14 00:57:37;;;;;;;8.88;6.05;;;15.90;98.10;;;;;;5081440;28;20462;-34
2023/05/14 01:00:04;;;;;;;6.50;5.45;;;15.80;98.20;;;;;;5083924;28;20032;-35
2023/05/14 01:02:29;;;;;;;8.23;6.53;;;15.80;98.30;;;;;;5083430;28;20024;-34
2023/05/14 01:04:56;;;;;;;7.10;6.38;;;15.80;98.50;;;;;;5083288;28;20020;-34
2023/05/14 01:07:27;;;;;;;8.40;5.97;;;15.80;98.60;;;;;;5082910;28;20792;-35
2023/05/14 01:10:10;;;;;;;9.10;6.60;;;15.80;98.60;;;;;;5082029;28;20024;-34
2023/05/14 01:12:46;;;;;;;;;;;15.80;98.70;;;;;;5082034;28;20131;-34
2023/05/14 01:15:30;;;;;;;7.97;6.60;;;15.70;98.80;;;;;;5082342;28;19907;-35
2023/05/14 01:18:02;;;;;;;7.80;5.70;;;15.60;98.90;;;;;;5083751;28;20135;-36
2023/05/14 01:20:27;;;;;;;7.90;6.23;;;15.60;99.00;;;;;;5082570;28;20099;-35
2023/05/14 01:22:53;;;;;;;7.60;5.43;;;15.60;99.10;;;;;;5083771;28;20526;-35
2023/05/14 01:25:21;;;;;;;7.78;6.68;;;15.50;99.30;;;;;;5082719;28;20030;-36
2023/05/14 01:28:08;;;;;;;8.70;6.05;;;15.50;99.40;;;;;;5063100;28;20028;-35
2023/05/14 01:30:35;;;;;;;7.65;6.70;;;15.50;99.70;;;;;;5080875;28;20028;-35
2023/05/14 01:33:05;;;;;;;7.60;6.80;;;15.50;99.70;;;;;;5082881;28;20474;-34
2023/05/14 01:35:31;;;;;;;7.80;6.45;;;15.40;99.90;;;;;;5082142;28;20753;-34
2023/05/14 01:38:00;;;;;;;8.25;7.07;;;15.40;99.90;;;;;;5063212;28;20043;-35
2023/05/14 01:40:27;;;;;;;7.95;6.22;;;15.40;99.90;;;;;;5076605;28;20028;-35
2023/05/14 01:42:53;;;;;;;6.93;6.15;;;15.30;99.90;;;;;;5083667;28;20502;-34
2023/05/14 01:45:20;;;;;;;7.45;6.72;;;15.30;99.90;;;;;;5083063;28;20046;-35
2023/05/14 01:47:45;;;;;;;6.82;5.78;;;15.20;99.90;;;;;;5082902;28;20102;-35
2023/05/14 01:50:14;;;;;;;8.90;6.50;;;15.10;99.90;;;;;;5083262;28;20711;-36
2023/05/14 01:52:39;;;;;;;8.20;7.40;;;15.10;99.90;;;;;;5082209;28;20113;-34
2023/05/14 01:55:05;;;;;;;9.57;7.28;;;15.10;99.90;;;;;;5081929;28;20107;-36
2023/05/14 01:57:31;;;;;;;9.43;6.65;;;15.10;99.90;;;;;;5082788;28;20028;-34
2023/05/14 01:59:56;;;;;;;8.27;6.40;;;15.10;99.90;;;;;;5083559;28;20020;-34
2023/05/14 02:02:22;;;;;;;9.20;7.07;;;15.10;99.90;;;;;;5082050;28;20506;-35
2023/05/14 02:04:48;;;;;;;9.15;6.60;;;15.00;99.90;;;;;;5082747;28;20028;-35
2023/05/14 02:07:13;;;;;;;9.82;7.35;;;15.00;99.90;;;;;;5082497;28;20028;-35
2023/05/14 02:09:42;;;;;;;7.40;6.60;;;14.90;99.90;;;;;;5081998;28;20203;-35
2023/05/14 02:12:08;;;;;;;7.38;6.50;;;14.90;99.90;;;;;;5082824;28;20050;-34
2023/05/14 02:14:34;;;;;;;8.40;6.22;;;14.90;99.90;;;;;;5081743;28;20613;-35
2023/05/14 02:16:59;;;;;;;8.40;6.95;;;14.80;99.90;;;;;;5081643;28;20020;-36
2023/05/14 02:19:25;;;;;;;8.65;6.85;;;14.80;99.90;;;;;;5080975;28;20048;-35
2023/05/14 02:21:50;;;;;;;10.68;6.95;;;14.70;99.90;;;;;;5081411;28;20069;-35
2023/05/14 02:24:16;;;;;;;9.73;6.68;;;14.70;99.90;;;;;;5082078;28;20111;-35
2023/05/14 02:26:42;;;;;;;8.32;7.53;;;14.70;99.90;;;;;;5081556;28;20362;-34
2023/05/14 02:29:07;;;;;;;8.75;7.38;;;14.70;99.90;;;;;;5081769;28;20097;-37
2023/05/14 02:31:33;;;;;;;7.95;6.68;;;14.70;99.90;;;;;;5081100;28;20028;-33
2023/05/14 02:34:00;;;;;;;10.13;7.70;;;14.70;99.90;;;;;;5083036;28;20166;-34
2023/05/14 02:36:26;;;;;;;9.55;8.10;;;14.60;99.90;;;;;;5081477;28;20599;-35
2023/05/14 02:38:51;;;;;;;11.20;7.65;;;14.60;99.90;;;;;;5082765;28;20040;-45
2023/05/14 02:41:17;;;;;;;9.18;7.50;;;14.60;99.90;;;;;;5081579;28;20368;-34
2023/05/14 02:43:42;;;;;;;9.40;7.60;;;14.50;99.90;;;;;;5081408;28;20016;-35
2023/05/14 02:46:08;;;;;;;10.95;8.10;;;14.40;99.90;;;;;;5082631;28;20069;-35
2023/05/14 02:48:33;;;;;;;10.18;7.90;;;14.40;99.90;;;;;;5081988;28;20035;-34
2023/05/14 02:50:59;;;;;;;8.30;7.40;;;14.30;99.90;;;;;;5081776;28;20028;-35
2023/05/14 02:53:25;;;;;;;13.07;8.55;;;14.30;99.90;;;;;;5081414;28;20114;-34
2023/05/14 02:55:50;;;;;;;8.82;6.88;;;14.30;99.90;;;;;;5082178;28;20028;-35
2023/05/14 02:58:16;;;;;;;10.80;7.90;;;14.30;99.90;;;;;;5081822;28;20039;-45
2023/05/14 03:00:41;;;;;;;8.05;7.25;;;14.20;99.90;;;;;;5081766;28;20032;-35
2023/05/14 03:03:07;;;;;;;9.10;8.20;;;14.10;99.90;;;;;;5081544;28;20024;-35
2023/05/14 03:05:33;;;;;;;10.13;7.88;;;14.10;99.90;;;;;;5080539;28;20032;-35
2023/05/14 03:07:59;;;;;;;11.15;8.07;;;14.10;99.90;;;;;;5081828;28;20058;-34
2023/05/14 03:10:24;;;;;;;8.00;7.20;;;14.10;99.90;;;;;;5081023;28;20479;-35
2023/05/14 03:12:50;;;;;;;9.93;7.60;;;14.00;99.90;;;;;;5080885;28;20024;-36
2023/05/14 03:15:19;;;;;;;9.45;8.48;;;13.90;99.90;;;;;;5081445;28;20047;-35
2023/05/14 03:17:44;;;;;;;10.00;8.13;;;13.90;99.90;;;;;;5080908;28;20498;-34
2023/05/14 03:20:11;;;;;;;12.88;9.13;;;13.80;99.90;;;;;;5081831;28;20028;-34
2023/05/14 03:22:36;;;;;;;11.10;8.95;;;13.80;99.90;;;;;;5081397;28;20513;-35
2023/05/14 03:25:02;;;;;;;10.95;8.02;;;13.90;99.90;;;;;;5080461;28;20550;-34
2023/05/14 03:27:28;;;;;;;9.90;7.93;;;13.80;99.90;;;;;;5080794;28;20193;-35
2023/05/14 03:29:53;;;;;;;9.77;8.02;;;13.80;99.90;;;;;;5081013;28;20020;-35
2023/05/14 03:32:20;;;;;;;9.32;8.35;;;13.80;99.90;;;;;;5083001;28;20481;-35
2023/05/14 03:34:48;;;;;;;10.57;8.52;;;13.80;99.90;;;;;;5085090;28;20036;-35
2023/05/14 03:37:14;;;;;;;13.40;8.35;;;13.80;99.90;;;;;;5085192;28;20475;-34
2023/05/14 03:39:39;;;;;;;10.95;9.35;;;13.70;99.90;;;;;;5083941;28;20035;-35
2023/05/14 03:42:05;;;;;;;11.13;9.38;;;13.60;99.90;;;;;;5086406;28;20074;-34
2023/05/14 03:44:30;;;;;;;10.13;9.02;;;13.60;99.90;;;;;;5084881;28;20118;-35
2023/05/14 03:46:56;;;;;;;12.13;8.65;;;13.60;99.90;;;;;;5084854;28;20024;-35
2023/05/14 03:49:22;;;;;;;11.48;8.55;;;13.60;99.90;;;;;;5084847;28;20696;-34
2023/05/14 03:51:47;;;;;;;10.80;8.50;;;13.60;99.90;;;;;;5084999;28;20024;-35
2023/05/14 03:54:15;;;;;;;11.75;8.30;;;13.60;99.90;;;;;;5084365;28;20048;-35
2023/05/14 03:56:41;;;;;;;11.93;9.15;;;13.50;99.90;;;;;;5084840;28;20071;-35
2023/05/14 03:59:06;;;;;;;10.90;8.75;;;13.50;99.90;;;;;;5085146;28;20123;-35
2023/05/14 04:01:32;;;;;;;13.45;9.32;;;13.50;99.90;;;;;;5083809;28;20020;-35
2023/05/14 04:03:57;;;;;;;17.13;10.13;;;13.50;99.90;;;;;;5084963;28;20057;-35
2023/05/14 04:06:23;;;;;;;9.95;8.40;;;13.50;99.90;;;;;;5085063;28;20078;-35
2023/05/14 04:08:48;;;;;;;9.48;8.20;;;13.50;99.90;;;;;;5084830;28;20139;-36
2023/05/14 04:11:14;;;;;;;13.77;8.38;;;13.50;99.90;;;;;;5085732;28;20111;-34
2023/05/14 04:13:40;;;;;;;9.05;7.70;;;13.40;99.90;;;;;;5085224;28;20032;-35
2023/05/14 04:16:08;;;;;;;10.57;8.48;;;13.40;99.90;;;;;;5084211;28;20020;-35
2023/05/14 04:18:34;;;;;;;9.05;8.15;;;13.40;99.90;;;;;;5084302;28;20040;-35
2023/05/14 04:21:03;;;;;;;10.68;8.40;;;13.40;99.90;;;;;;5084979;28;20115;-34
2023/05/14 04:23:32;;;;;;;11.10;9.10;;;13.40;99.90;;;;;;5063979;28;20895;-35
2023/05/14 04:25:58;;;;;;;10.80;8.07;;;13.30;99.90;;;;;;5079217;28;20016;-35
2023/05/14 04:28:23;;;;;;;10.73;8.48;;;13.20;99.90;;;;;;5084280;28;20035;-34
2023/05/14 04:30:49;;;;;;;9.50;8.50;;;13.20;99.90;;;;;;5084580;28;20354;-35
2023/05/14 04:33:15;;;;;;;10.82;8.80;;;13.10;99.90;;;;;;5084555;28;20035;-35
2023/05/14 04:35:43;;;;;;;10.52;8.52;;;13.10;99.90;;;;;;5083073;28;20012;-34
2023/05/14 04:38:10;;;;;;;10.88;8.38;;;13.00;99.90;;;;;;5083856;28;20478;-34
2023/05/14 04:40:35;;;;;;;10.93;9.50;;;13.00;99.90;;;;;;5083250;28;20824;-35
2023/05/14 04:43:01;;;;;;;13.77;9.38;;;13.00;99.90;;;;;;5082318;28;20028;-35
2023/05/14 04:45:27;;;;;;;10.70;9.10;;;12.90;99.90;;;;;;5083461;28;20827;-34
2023/05/14 04:47:52;;;;;;;10.40;8.73;;;12.90;99.90;;;;;;5084922;28;20020;-35
2023/05/14 04:50:18;;;;;;;10.23;8.50;;;12.90;99.90;;;;;;5083834;28;20067;-35
2023/05/14 04:52:43;;;;;;;13.88;8.73;;;12.90;99.90;;;;;;5084202;28;20027;-35
2023/05/14 04:55:09;;;;;;;11.48;8.65;;;12.90;99.90;;;;;;5085150;28;20028;-35
2023/05/14 04:57:34;;;;;;;14.68;9.52;;;12.90;99.90;;;;;;5082442;28;20032;-34
2023/05/14 05:00:00;;;;;;;12.02;8.65;;;12.90;99.90;;;;;;5084600;28;20039;-35
2023/05/14 05:02:26;;;;;;;9.25;8.18;;;12.90;99.90;;;;;;5083187;28;20039;-33
2023/05/14 05:04:55;;;;;;;12.93;9.18;;;13.00;99.90;;;;;;5083459;28;20039;-34
2023/05/14 05:07:32;;;;;;;11.52;9.00;;;13.00;99.90;;;;;;5083699;28;20024;-35
2023/05/14 05:09:59;;;;;;;11.30;8.70;;;13.00;99.90;;;;;;5083691;28;20058;-34
2023/05/14 05:12:24;;;;;;;12.52;9.23;;;13.10;99.90;;;;;;5081787;28;20024;-34
2023/05/14 05:14:50;;;;;;;10.07;8.45;;;13.20;99.90;;;;;;5083857;28;20085;-34
2023/05/14 05:17:25;;;;;;;12.23;8.55;;;13.20;99.90;;;;;;5083182;28;20702;-35
2023/05/14 05:19:51;;;;;;;9.27;7.97;;;13.30;99.90;;;;;;5083896;28;20043;-35
2023/05/14 05:22:18;;;;;;;9.80;8.80;;;13.30;99.90;;;;;;5083271;28;20030;-34
2023/05/14 05:24:43;;;;;;;7.20;6.47;;;13.30;99.90;;;;;;5082835;28;20038;-42
2023/05/14 05:27:09;;;;;;;10.93;9.27;;;13.30;99.90;;;;;;5083529;28;20020;-35
2023/05/14 05:29:36;;;;;;;10.85;8.40;;;13.30;99.90;;;;;;5083019;28;20894;-35
2023/05/14 05:32:01;;;;;;;10.15;8.55;;;13.30;99.90;;;;;;5083395;28;20035;-34
2023/05/14 05:34:27;;;;;;;11.57;8.95;;;13.40;99.90;;;;;;5083746;28;20634;-34
2023/05/14 05:36:52;;;;;;;11.00;8.05;;;13.40;99.90;;;;;;5083112;28;20028;-36
2023/05/14 05:39:18;;;;;;;9.68;8.20;;;13.50;99.90;;;;;;5082517;28;20080;-35
2023/05/14 05:41:43;;;;;;;9.55;8.07;;;13.60;99.90;;;;;;5083381;28;20035;-35
2023/05/14 05:44:09;;;;;;;9.77;7.80;;;13.70;99.90;;;;;;5083322;28;21337;-35
2023/05/14 05:46:35;;;;;;;11.27;8.20;;;13.70;99.90;;;;;;5081984;28;20028;-34
2023/05/14 05:49:00;;;;;;;12.30;9.10;;;13.80;99.90;;;;;;5082434;28;20080;-35
2023/05/14 05:51:29;;;;;;;12.77;8.40;;;13.80;99.90;;;;;;5082410;28;20116;-36
2023/05/14 05:53:54;;;;;;;10.48;7.90;;;13.80;99.90;;;;;;5080331;28;20135;-36
2023/05/14 05:56:22;;;;;;;11.65;8.27;;;13.90;99.90;;;;;;5082672;28;20020;-35
2023/05/14 05:58:48;;;;;;;11.35;8.65;;;13.80;99.90;;;;;;5082567;28;20105;-34
2023/05/14 06:01:15;;;;;;;11.55;8.57;;;13.90;99.90;;;;;;5082096;28;20059;-34
2023/05/14 06:03:40;;;;;;;8.40;7.50;;;13.80;99.90;;;;;;5082259;28;20019;-34
2023/05/14 06:06:06;;;;;;;8.60;7.70;;;13.90;99.90;;;;;;5082656;28;20499;-34
2023/05/14 06:08:31;;;;;;;11.52;9.10;;;13.80;99.90;;;;;;5081618;28;20031;-35
2023/05/14 06:10:57;;;;;;;9.25;8.35;;;13.80;99.90;;;;;;5082511;28;20193;-35
2023/05/14 06:13:22;;;;;;;10.55;8.55;;;13.90;99.90;;;;;;5082857;28;20155;-34
2023/05/14 06:15:51;;;;;;;12.95;8.80;;;14.00;99.90;;;;;;5082344;28;20360;-35
2023/05/14 06:18:17;;;;;;;12.32;8.30;;;14.10;99.90;;;;;;5082918;28;20128;-34
2023/05/14 06:20:43;;;;;;;9.48;8.15;;;14.20;99.90;;;;;;5081574;28;20024;-39
2023/05/14 06:23:10;;;;;;;12.27;9.07;;;14.40;99.90;;;;;;5082688;28;20035;-35
2023/05/14 06:25:36;;;;;;;13.30;8.65;;;14.50;99.90;;;;;;5081618;28;20417;-35
2023/05/14 06:28:02;;;;;;;11.77;8.35;;;14.60;99.90;;;;;;5081608;28;20432;-34
2023/05/14 06:30:27;;;;;;;8.93;7.50;;;14.70;99.90;;;;;;5081929;28;20115;-35
2023/05/14 06:32:53;;;;;;;8.82;6.90;;;14.70;99.90;;;;;;5083115;28;20039;-35
2023/05/14 06:35:19;;;;;;;7.82;6.95;;;14.70;99.90;;;;;;5081066;28;20024;-35
2023/05/14 06:37:44;;;;;;;7.85;6.57;;;14.80;99.90;;;;;;5082241;28;20100;-35
2023/05/14 06:40:11;;;;;;;9.13;7.65;;;14.80;99.90;;;;;;5081671;28;20024;-34
2023/05/14 06:42:37;;;;;;;7.90;6.38;;;14.80;99.90;;;;;;5080642;28;20028;-36
2023/05/14 06:45:03;;;;;;;9.82;7.72;;;14.90;99.90;;;;;;5081665;28;20023;-35
2023/05/14 06:47:29;;;;;;;9.43;7.18;;;14.90;99.90;;;;;;5081803;28;20028;-35
2023/05/14 06:49:57;;;;;;;10.27;7.97;;;15.00;99.90;;;;;;5081011;28;20013;-35
2023/05/14 06:52:23;;;;;;;7.68;6.88;;;15.00;99.90;;;;;;5080766;28;20028;-35
2023/05/14 06:54:48;;;;;;;7.80;6.20;;;15.10;99.90;;;;;;5081210;28;20048;-35
2023/05/14 06:57:14;;;;;;;8.05;6.20;;;15.20;99.90;;;;;;5080336;28;20034;-34
2023/05/14 06:59:40;;;;;;;7.47;6.72;;;15.30;99.90;;;;;;5080295;28;20063;-34
2023/05/14 07:02:06;;;;;;;8.23;6.35;;;15.40;99.90;;;;;;5081923;28;20031;-36
2023/05/14 07:04:35;;;;;;;7.38;6.22;;;15.50;99.90;;;;;;5080255;28;20032;-35
2023/05/14 07:07:00;;;;;;;9.73;6.75;;;15.50;99.90;;;;;;5080342;28;20393;-35
2023/05/14 07:09:26;;;;;;;9.55;6.85;;;15.60;99.90;;;;;;5081640;28;20491;-34
2023/05/14 07:11:58;;;;;;;8.43;5.78;;;15.60;99.90;;;;;;5081238;28;20049;-35
2023/05/14 07:14:23;;;;;;;8.32;5.60;;;15.80;99.90;;;;;;5081213;28;20036;-34
2023/05/14 07:16:49;;;;;;;6.50;5.47;;;15.90;99.90;;;;;;5081619;28;20024;-35
2023/05/14 07:19:14;;;;;;;9.70;7.50;;;15.90;99.90;;;;;;5080969;28;20040;-35
2023/05/14 07:21:40;;;;;;;6.85;5.28;;;16.00;99.90;;;;;;5080695;28;20048;-35
2023/05/14 07:24:15;;;;;;;8.50;6.28;;;16.00;99.90;;;;;;5081136;28;20058;-33
2023/05/14 07:26:40;;;;;;;7.57;6.32;;;16.10;99.90;;;;;;5080741;28;20024;-35
2023/05/14 07:29:06;;;;;;;9.43;5.82;;;16.10;99.90;;;;;;5081884;28;20028;-35
2023/05/14 07:31:31;;;;;;;7.63;6.68;;;16.10;99.90;;;;;;5080726;28;20031;-35
2023/05/14 07:34:03;;;;;;;8.30;6.70;;;16.10;99.90;;;;;;5080987;28;20020;-35
2023/05/14 07:36:28;;;;;;;6.90;5.45;;;16.20;99.90;;;;;;5080710;28;20043;-36
2023/05/14 07:38:54;;;;;;;8.38;5.97;;;16.30;99.90;;;;;;5081030;28;20480;-34
2023/05/14 07:41:20;;;;;;;7.95;7.20;;;16.30;99.90;;;;;;5080880;28;20067;-34
2023/05/14 07:43:45;;;;;;;6.68;5.85;;;16.40;99.90;;;;;;5081047;28;20491;-38
2023/05/14 07:46:11;;;;;;;7.80;7.00;;;16.30;99.90;;;;;;5080448;28;20024;-35
2023/05/14 07:48:37;;;;;;;8.50;7.05;;;16.40;99.90;;;;;;5080651;28;20061;-35
2023/05/14 07:51:02;;;;;;;7.78;6.25;;;16.40;99.90;;;;;;5081445;28;20852;-35
2023/05/14 07:53:28;;;;;;;7.50;5.75;;;16.40;99.90;;;;;;5079280;28;20606;-35
2023/05/14 07:55:53;;;;;;;9.02;6.97;;;16.40;99.90;;;;;;5081156;28;20135;-34
2023/05/14 07:58:19;;;;;;;6.15;5.40;;;16.50;99.90;;;;;;5080564;28;20078;-35
2023/05/14 08:00:44;;;;;;;7.82;6.32;;;16.50;99.90;;;;;;5079891;28;20025;-35
2023/05/14 08:03:10;;;;;;;7.32;5.80;;;16.60;99.90;;;;;;5080552;28;20024;-36
2023/05/14 08:05:36;;;;;;;5.97;5.38;;;16.60;99.90;;;;;;5080523;28;20498;-35
2023/05/14 08:08:01;;;;;;;5.28;4.80;;;16.70;99.90;;;;;;5079623;28;20047;-35
2023/05/14 08:10:27;;;;;;;6.03;5.43;;;16.70;99.90;;;;;;5080584;28;20094;-34
2023/05/14 08:12:52;;;;;;;4.97;4.40;;;16.80;99.90;;;;;;5081481;28;20020;-36
2023/05/14 08:15:18;;;;;;;4.40;4.00;;;16.80;99.90;;;;;;5079559;28;20074;-35
2023/05/14 08:17:43;;;;;;;5.30;4.28;;;16.90;99.90;;;;;;5081964;28;20596;-34
2023/05/14 08:20:10;;;;;;;4.68;4.18;;;16.90;99.90;;;;;;5084797;28;20475;-35
2023/05/14 08:22:36;;;;;;;4.68;3.83;;;17.00;99.90;;;;;;5082441;28;20040;-36
2023/05/14 08:25:02;;;;;;;4.68;4.07;;;17.10;99.90;;;;;;5084912;28;20012;-34
2023/05/14 08:27:28;;;;;;;4.28;3.88;;;17.20;99.90;;;;;;5082717;28;20101;-35
2023/05/14 08:29:54;;;;;;;5.45;3.88;;;17.30;99.90;;;;;;5084559;28;20138;-34
2023/05/14 08:32:19;;;;;;;4.55;3.70;;;17.40;99.90;;;;;;5084745;28;20157;-36
2023/05/14 08:34:45;;;;;;;4.30;3.90;;;17.50;99.90;;;;;;5083928;28;20463;-35
2023/05/14 08:37:10;;;;;;;4.47;4.07;;;17.60;99.90;;;;;;5085144;28;20468;-34
2023/05/14 08:39:36;;;;;;;3.70;3.40;;;17.70;99.90;;;;;;5084242;28;20790;-35
2023/05/14 08:42:06;;;;;;;7.82;4.13;;;17.80;99.90;;;;;;5083920;28;20112;-35
2023/05/14 08:44:59;;;;;;;4.20;3.60;;;17.90;99.90;;;;;;5083978;28;20024;-35
2023/05/14 08:47:25;;;;;;;3.72;3.38;;;18.00;99.90;;;;;;5064168;28;20035;-34
2023/05/14 08:50:07;;;;;;;6.00;3.65;;;18.20;99.90;;;;;;5078789;28;20028;-34
2023/05/14 08:52:33;;;;;;;6.25;3.20;;;18.30;99.90;;;;;;5063862;28;20028;-35
2023/05/14 08:55:01;;;;;;;3.47;3.05;;;18.30;99.90;;;;;;5078987;28;20055;-35
2023/05/14 08:57:30;;;;;;;3.40;3.10;;;18.30;99.90;;;;;;5083639;28;20131;-35
2023/05/14 08:59:57;;;;;;;3.08;2.80;;;18.40;99.90;;;;;;5084368;28;20111;-35
2023/05/14 09:02:26;;;;;;;3.40;3.10;;;18.40;99.90;;;;;;5083549;28;20070;-35
2023/05/14 09:04:55;;;;;;;3.30;3.10;;;18.50;99.90;;;;;;5084385;28;20024;-36
2023/05/14 09:07:22;;;;;;;3.28;3.03;;;18.60;99.90;;;;;;5084202;28;20140;-35
2023/05/14 09:09:47;;;;;;;3.40;3.10;;;18.60;99.90;;;;;;5082606;28;20103;-37
2023/05/14 09:12:13;;;;;;;4.50;3.38;;;18.70;99.90;;;;;;5083256;28;20109;-35
2023/05/14 09:14:38;;;;;;;3.22;2.88;;;18.70;99.90;;;;;;5083074;28;20032;-36
2023/05/14 09:17:04;;;;;;;4.53;2.90;;;18.80;99.90;;;;;;5083115;28;20486;-35
2023/05/14 09:19:33;;;;;;;3.95;2.70;;;18.80;99.90;;;;;;5082532;28;20017;-34
2023/05/14 09:21:58;;;;;;;4.55;3.40;;;18.80;99.90;;;;;;5083717;28;20131;-34
2023/05/14 09:24:29;;;;;;;4.35;3.58;;;18.90;99.90;;;;;;5082107;28;20073;-35
2023/05/14 09:26:56;;;;;;;5.40;3.47;;;18.90;99.90;;;;;;5079638;28;20030;-34
2023/05/14 09:29:29;;;;;;;3.55;2.90;;;18.90;99.90;;;;;;5082934;28;20024;-34
2023/05/14 09:31:56;;;;;;;3.80;2.92;;;19.00;99.90;;;;;;5081776;28;20110;-34
2023/05/14 09:34:27;;;;;;;3.50;3.20;;;19.10;99.90;;;;;;5083630;28;20020;-35
2023/05/14 09:37:06;;;;;;;4.35;2.88;;;19.10;99.90;;;;;;5082840;28;20373;-34
2023/05/14 09:39:32;;;;;;;5.93;3.30;;;19.10;99.90;;;;;;5082283;28;20036;-36
2023/05/14 09:41:58;;;;;;;4.05;3.35;;;19.10;99.90;;;;;;5083493;28;20091;-34
2023/05/14 09:44:24;;;;;;;3.35;3.10;;;19.20;99.90;;;;;;5082993;28;20158;-36
2023/05/14 09:46:51;;;;;;;3.90;3.60;;;19.30;99.90;;;;;;5082273;28;20059;-36
2023/05/14 09:49:17;;;;;;;3.25;3.03;;;19.30;99.90;;;;;;5083044;28;20043;-35
2023/05/14 09:51:43;;;;;;;3.60;3.15;;;19.40;99.90;;;;;;5081499;28;20073;-35
2023/05/14 09:54:11;;;;;;;3.38;3.08;;;19.50;99.90;;;;;;5082830;28;20403;-36
2023/05/14 09:56:38;;;;;;;4.95;3.40;;;19.50;99.90;;;;;;5082178;28;20512;-34
2023/05/14 09:59:04;;;;;;;3.42;3.13;;;19.60;99.80;;;;;;5082965;28;20040;-36
2023/05/14 10:01:31;;;;;;;3.75;3.15;;;19.60;99.80;;;;;;5082677;28;20047;-36
2023/05/14 10:04:00;;;;;;;5.03;3.63;;;19.70;99.70;;;;;;5082896;28;20036;-35
2023/05/14 10:06:29;;;;;;;4.82;3.65;;;19.80;99.70;;;;;;5081307;28;20016;-36
2023/05/14 10:09:01;;;;;;;3.15;2.85;;;19.80;99.10;;;;;;5082915;28;20024;-36
2023/05/14 10:11:29;;;;;;;;;;;20.00;98.90;;;;;;5082409;28;20034;-35
2023/05/14 10:14:03;;;;;;;3.55;3.25;;;20.00;98.50;;;;;;5071218;28;19947;-35
2023/05/14 10:16:38;;;;;;;4.05;3.65;;;20.10;98.50;;;;;;5082241;28;20024;-35
2023/05/14 10:19:09;;;;;;;4.00;3.60;;;20.10;98.40;;;;;;5070785;28;20807;-35
2023/05/14 10:21:36;;;;;;;3.70;3.28;;;20.20;98.20;;;;;;5081085;28;20958;-34
2023/05/14 10:24:03;;;;;;;3.15;2.88;;;20.20;98.20;;;;;;5082127;28;20028;-35
2023/05/14 10:26:36;;;;;;;6.63;3.30;;;20.20;98.20;;;;;;5081893;28;20024;-35
2023/05/14 10:29:02;;;;;;;3.40;3.00;;;20.30;98.00;;;;;;5078501;28;20031;-35
2023/05/14 10:31:52;;;;;;;3.50;2.75;;;20.40;97.90;;;;;;5082015;28;20028;-34
2023/05/14 10:34:44;;;;;;;3.45;2.90;;;20.40;97.50;;;;;;5081868;28;20035;-34
2023/05/14 10:37:13;;;;;;;3.75;2.72;;;20.40;97.20;;;;;;5082642;28;20103;-35
2023/05/14 10:39:42;;;;;;;3.63;3.33;;;20.50;97.20;;;;;;5081234;28;20036;-35
2023/05/14 10:42:15;;;;;;;3.13;2.83;;;20.60;96.80;;;;;;5081016;28;20031;-37
2023/05/14 10:44:49;;;;;;;2.47;2.28;;;20.60;96.80;;;;;;5081374;28;20026;-35
2023/05/14 10:47:18;;;;;;;3.72;2.63;;;20.60;96.80;;;;;;5081826;28;20069;-36
2023/05/14 10:49:47;;;;;;;4.05;3.00;;;20.70;96.70;;;;;;5080865;28;20019;-35
2023/05/14 10:52:16;;;;;;;3.15;2.85;;;20.80;96.10;;;;;;5082065;28;20036;-36
2023/05/14 10:54:52;;;;;;;3.53;3.22;;;20.90;95.90;;;;;;5080577;28;20047;-34
2023/05/14 10:57:23;;;;;;;3.08;2.67;;;21.00;95.40;;;;;;5081536;28;20039;-36
2023/05/14 10:59:53;;;;;;;2.45;2.25;;;21.00;94.90;;;;;;5081586;28;20047;-36
2023/05/14 11:02:27;;;;;;;2.88;1.90;;;21.10;94.60;;;;;;5082053;28;20027;-35
2023/05/14 11:05:03;;;;;;;4.32;2.15;;;21.10;94.20;;;;;;5082230;28;20024;-37
2023/05/14 11:07:36;;;;;;;2.10;1.90;;;21.10;93.80;;;;;;5081405;28;20020;-34
2023/05/14 11:10:31;;;;;;;1.70;1.60;;;21.10;93.60;;;;;;5080913;28;20028;-36
2023/05/14 11:12:57;;;;;;;1.77;1.52;;;21.20;93.70;;;;;;5081679;28;20815;-35
2023/05/14 11:15:27;;;;;;;2.20;1.70;;;21.30;93.60;;;;;;5081153;28;20020;-35
2023/05/14 11:17:53;;;;;;;2.60;2.35;;;21.40;93.40;;;;;;5081244;28;20024;-36
2023/05/14 11:20:20;;;;;;;2.25;2.00;;;21.50;92.80;;;;;;5081017;28;20121;-38
2023/05/14 11:22:47;;;;;;;1.73;1.63;;;21.60;92.40;;;;;;5081478;28;20028;-35
2023/05/14 11:25:14;;;;;;;2.05;1.85;;;21.70;92.20;;;;;;5080362;28;20032;-34
2023/05/14 11:27:41;;;;;;;3.10;2.35;;;21.70;91.40;;;;;;5080401;28;20069;-36
2023/05/14 11:30:25;;;;;;;2.60;2.20;;;21.80;90.70;;;;;;5079763;28;20024;-36
2023/05/14 11:32:51;;;;;;;3.45;2.58;;;21.80;90.40;;;;;;5060945;28;20074;-34
2023/05/14 11:35:17;;;;;;;3.20;2.90;;;21.80;90.30;;;;;;5074932;28;20502;-37
2023/05/14 11:37:49;;;;;;;3.30;2.72;;;21.80;90.50;;;;;;5080458;28;20028;-37
2023/05/14 11:40:15;;;;;;;3.08;2.70;;;21.80;90.70;;;;;;5080602;28;20043;-36
2023/05/14 11:42:41;;;;;;;2.35;2.15;;;21.90;90.60;;;;;;5081104;28;20107;-35
2023/05/14 11:45:10;;;;;;;3.40;2.25;;;22.00;90.70;;;;;;5080612;28;20034;-35
2023/05/14 11:47:36;;;;;;;2.42;2.22;;;22.10;90.70;;;;;;5081317;28;20035;-36
2023/05/14 11:50:02;;;;;;;2.22;1.92;;;22.30;90.90;;;;;;5081484;28;20028;-35
2023/05/14 11:52:27;;;;;;;2.15;1.80;;;22.40;91.00;;;;;;5081001;28;20016;-36
2023/05/14 11:54:53;;;;;;;2.53;2.33;;;22.60;91.20;;;;;;5085726;28;20028;-36
2023/05/14 11:57:20;;;;;;;3.20;2.70;;;22.70;91.30;;;;;;5085516;28;20016;-35
2023/05/14 11:59:55;;;;;;;2.88;2.53;;;22.80;91.30;;;;;;5084831;28;20031;-36
2023/05/14 12:02:26;;;;;;;3.97;2.47;;;22.80;91.40;;;;;;5084964;28;20027;-35
2023/05/14 12:04:52;;;;;;;2.80;2.20;;;22.80;91.10;;;;;;5085982;28;20024;-36
2023/05/14 12:07:18;;;;;;;2.42;2.22;;;22.80;91.10;;;;;;5084105;28;20155;-36
2023/05/14 12:09:48;;;;;;;3.33;2.53;;;22.70;91.00;;;;;;5084497;28;20135;-35
2023/05/14 12:12:18;;;;;;;4.03;2.50;;;22.60;90.90;;;;;;5084256;28;20020;-36
2023/05/14 12:14:45;;;;;;;2.90;2.45;;;22.60;90.80;;;;;;5084901;28;20474;-37
2023/05/14 12:17:16;;;;;;;3.25;2.35;;;22.40;90.80;;;;;;5084493;28;20032;-36
2023/05/14 12:19:43;;;;;;;5.95;2.50;;;22.40;90.90;;;;;;5084010;28;20123;-36
2023/05/14 12:22:17;;;;;;;2.95;2.20;;;22.40;90.70;;;;;;5085381;28;20023;-34
2023/05/14 12:24:51;;;;;;;2.33;2.20;;;22.30;90.10;;;;;;5084788;28;20050;-35
2023/05/14 12:27:20;;;;;;;3.03;2.10;;;22.40;90.00;;;;;;5083899;28;20028;-46
2023/05/14 12:29:46;;;;;;;2.22;2.03;;;22.40;90.00;;;;;;5084199;28;20765;-36
2023/05/14 12:32:11;;;;;;;2.83;2.40;;;22.40;90.10;;;;;;5084058;28;20035;-34
2023/05/14 12:34:37;;;;;;;2.50;2.00;;;22.40;89.50;;;;;;5082764;28;20028;-34
2023/05/14 12:37:04;;;;;;;2.05;1.83;;;22.40;89.40;;;;;;5082990;28;20036;-37
2023/05/14 12:39:53;;;;;;;2.60;2.20;;;22.50;89.60;;;;;;5083552;28;20158;-35
2023/05/14 12:42:19;;;;;;;3.63;2.70;;;22.60;90.10;;;;;;5082300;28;20079;-37
2023/05/14 12:44:44;;;;;;;4.68;3.05;;;22.60;90.60;;;;;;5084048;28;20106;-35
2023/05/14 12:47:10;;;;;;;2.92;2.40;;;22.70;91.20;;;;;;5084592;28;20036;-35